Leeming, United Kingdom
Current Conditions -  °F | °C
As of 5:23 PM on Thursday 30 Oct 2014 (Local Time) from EGXE Reporting Station
Light Rain Light Rain  
Wind Chill: 61°   Ceiling: 3500
Heat Index: 61°   Visibility: 5mi
Dew Point: 57°   Wind: 8mph
Humidity: 88%   Direction: 180°S
Pressure: 29.97"   Gusts: NA
Location:  54.29°N, 1.54°W
Report Text: EGXE 301723Z 18007KT 8000 -RA SCT022 BKN035 16/14 Q1015 WHT TEMPO 7000 HZ FEW022 WHT
Loading
Personal Weather Stations






























Interactive Weather Map
Tropical Storm Tracking
New forecast layout! Learn more

10-Day Weather Forecast

Advertisements
Track Severe Weather on mobile